Time;durP1;ratioP1;P1;durP2;ratioP2;P2;SDS_P1;SDS_P2;PMS_P1;PMS_P2;Temp;Humidity;BMP_temperature;BMP_pressure;BME280_temperature;BME280_humidity;BME280_pressure;Samples;Min_cycle;Max_cycle;Signal;HPM_P1;HPM_P2
2022/01/15 00:00:05;;;;;;;6.75;2.97;;;;;;;;;;7395331;19;20031;-73
2022/01/15 00:02:31;;;;;;;7.32;2.90;;;;;;;;;;7396405;19;20010;-73
2022/01/15 00:04:56;;;;;;;5.60;2.85;;;;;;;;;;7399572;19;20029;-73
2022/01/15 00:07:21;;;;;;;7.85;3.38;;;;;;;;;;7398407;19;20475;-73
2022/01/15 00:09:50;;;;;;;5.50;2.92;;;;;;;;;;7396095;19;20006;-73
2022/01/15 00:12:15;;;;;;;6.40;2.80;;;;;;;;;;7397715;19;20464;-73
2022/01/15 00:14:42;;;;;;;5.55;2.63;;;;;;;;;;7399745;19;19991;-73
2022/01/15 00:17:16;;;;;;;7.30;2.90;;;;;;;;;;7397992;19;20162;-73
2022/01/15 00:19:42;;;;;;;6.00;2.60;;;;;;;;;;7395922;19;20048;-73
2022/01/15 00:22:09;;;;;;;5.97;2.90;;;;;;;;;;7395907;19;20006;-73
2022/01/15 00:24:35;;;;;;;4.15;2.40;;;;;;;;;;7399401;19;20341;-73
2022/01/15 00:27:00;;;;;;;6.35;2.65;;;;;;;;;;7396095;19;20014;-73
2022/01/15 00:29:25;;;;;;;5.60;2.05;;;;;;;;;;7394751;19;20069;-73
2022/01/15 00:31:51;;;;;;;6.43;2.83;;;;;;;;;;7397166;19;20082;-73
2022/01/15 00:34:16;;;;;;;8.77;4.03;;;;;;;;;;7398160;19;20023;-73
2022/01/15 00:36:41;;;;;;;9.18;4.00;;;;;;;;;;7398031;19;20021;-73
2022/01/15 00:39:07;;;;;;;10.77;3.80;;;;;;;;;;7395095;19;20022;-73
2022/01/15 00:41:32;;;;;;;6.28;3.17;;;;;;;;;;7393393;19;20496;-73
2022/01/15 00:43:57;;;;;;;7.93;3.15;;;;;;;;;;7398299;19;20018;-73
2022/01/15 00:46:22;;;;;;;6.45;3.10;;;;;;;;;;7388770;19;20028;-73
2022/01/15 00:48:48;;;;;;;8.32;3.60;;;;;;;;;;7386201;19;20586;-73
2022/01/15 00:51:13;;;;;;;5.15;2.80;;;;;;;;;;7386394;19;20014;-73
2022/01/15 00:53:38;;;;;;;8.15;3.20;;;;;;;;;;7391521;19;20863;-73
2022/01/15 00:56:04;;;;;;;7.47;3.42;;;;;;;;;;7389280;19;20006;-73
2022/01/15 00:58:29;;;;;;;8.65;3.58;;;;;;;;;;7388002;19;20011;-73
2022/01/15 01:00:55;;;;;;;5.70;2.85;;;;;;;;;;7389665;19;20030;-73
2022/01/15 01:03:20;;;;;;;5.90;3.20;;;;;;;;;;7391008;19;20374;-73
2022/01/15 01:05:45;;;;;;;5.43;2.83;;;;;;;;;;7390478;19;19994;-73
2022/01/15 01:08:10;;;;;;;8.02;3.10;;;;;;;;;;7389270;19;20368;-73
2022/01/15 01:11:13;;;;;;;7.30;2.80;;;;;;;;;;7387684;19;20007;-73
2022/01/15 01:20:02;;;;;;;7.65;2.85;;;;;;;;;;7387095;19;20017;-73
2022/01/15 01:24:36;;;;;;;7.43;2.60;;;;;;;;;;7389483;19;20114;-73
2022/01/15 01:27:08;;;;;;;4.65;2.15;;;;;;;;;;7389247;19;20037;-74
2022/01/15 01:32:11;;;;;;;7.20;2.58;;;;;;;;;;7386571;19;20355;-73
2022/01/15 01:34:39;;;;;;;6.50;2.75;;;;;;;;;;7389666;19;20156;-73
2022/01/15 01:37:19;;;;;;;5.45;2.50;;;;;;;;;;7388116;19;20440;-73
2022/01/15 01:39:51;;;;;;;8.57;3.22;;;;;;;;;;7386569;19;20859;-74
2022/01/15 01:45:09;;;;;;;6.63;2.80;;;;;;;;;;7388806;19;20011;-73
2022/01/15 01:47:41;;;;;;;4.80;2.17;;;;;;;;;;7386157;19;20065;-73
2022/01/15 01:50:07;;;;;;;4.97;2.35;;;;;;;;;;7386823;19;20345;-73
2022/01/15 01:52:32;;;;;;;5.78;2.70;;;;;;;;;;7384938;19;20472;-73
2022/01/15 01:54:57;;;;;;;6.35;2.55;;;;;;;;;;7388123;19;20349;-73
2022/01/15 01:57:23;;;;;;;6.57;2.92;;;;;;;;;;7385697;19;20495;-73
2022/01/15 01:59:49;;;;;;;5.03;2.42;;;;;;;;;;7384463;19;20007;-73
2022/01/15 02:02:14;;;;;;;5.25;2.63;;;;;;;;;;7386185;19;20410;-73
2022/01/15 02:04:39;;;;;;;5.80;2.72;;;;;;;;;;7387669;19;20326;-74
2022/01/15 02:07:05;;;;;;;5.38;2.40;;;;;;;;;;7387123;19;20013;-74
2022/01/15 02:09:30;;;;;;;4.05;2.38;;;;;;;;;;7384804;19;20018;-73
2022/01/15 02:11:56;;;;;;;5.53;2.70;;;;;;;;;;7386687;19;20027;-73
2022/01/15 02:14:28;;;;;;;6.95;3.05;;;;;;;;;;7387090;19;20848;-73
2022/01/15 02:16:55;;;;;;;6.30;2.90;;;;;;;;;;7385125;19;20010;-73
2022/01/15 02:19:20;;;;;;;5.63;2.90;;;;;;;;;;7385279;19;19998;-73
2022/01/15 02:24:14;;;;;;;7.97;2.70;;;;;;;;;;7386440;19;20376;-73
2022/01/15 02:26:39;;;;;;;6.90;2.85;;;;;;;;;;7386427;19;20512;-73
2022/01/15 02:29:07;;;;;;;4.45;2.13;;;;;;;;;;7386868;19;20336;-73
2022/01/15 02:31:33;;;;;;;7.03;2.40;;;;;;;;;;7385004;19;20003;-73
2022/01/15 02:34:01;;;;;;;5.88;2.38;;;;;;;;;;7387592;19;20363;-73
2022/01/15 02:36:29;;;;;;;5.97;2.80;;;;;;;;;;7385296;19;20010;-73
2022/01/15 02:38:55;;;;;;;7.35;2.25;;;;;;;;;;7383464;19;20018;-73
2022/01/15 02:41:36;;;;;;;5.47;2.50;;;;;;;;;;7384179;19;20023;-74
2022/01/15 02:44:04;;;;;;;8.25;2.95;;;;;;;;;;7386038;19;20015;-73
2022/01/15 02:48:57;;;;;;;5.50;2.20;;;;;;;;;;7384423;19;20040;-73
2022/01/15 02:51:24;;;;;;;7.63;2.53;;;;;;;;;;7384205;19;20017;-73
2022/01/15 02:53:55;;;;;;;4.85;2.38;;;;;;;;;;7384812;19;20081;-74
2022/01/15 02:56:25;;;;;;;6.22;2.58;;;;;;;;;;7385875;19;20005;-74
2022/01/15 02:58:50;;;;;;;5.38;2.38;;;;;;;;;;7382715;19;20014;-73
2022/01/15 03:01:15;;;;;;;6.82;2.92;;;;;;;;;;7384139;19;20002;-73
2022/01/15 03:03:41;;;;;;;5.90;2.75;;;;;;;;;;7384022;19;20014;-73
2022/01/15 03:06:15;;;;;;;7.85;2.50;;;;;;;;;;7386649;19;20109;-73
2022/01/15 03:08:43;;;;;;;5.55;2.40;;;;;;;;;;7382290;19;20456;-73
2022/01/15 03:11:09;;;;;;;7.00;2.95;;;;;;;;;;7384307;19;20066;-74
2022/01/15 03:13:36;;;;;;;7.25;2.65;;;;;;;;;;7384933;19;20010;-73
2022/01/15 03:16:02;;;;;;;8.02;3.10;;;;;;;;;;7386383;19;20002;-73
2022/01/15 03:18:27;;;;;;;6.57;2.70;;;;;;;;;;7382369;19;20322;-74
2022/01/15 03:20:53;;;;;;;5.93;2.90;;;;;;;;;;7385712;19;20003;-73
2022/01/15 03:23:18;;;;;;;8.07;2.97;;;;;;;;;;7382512;19;20018;-73
2022/01/15 03:25:43;;;;;;;8.50;2.67;;;;;;;;;;7386196;19;20476;-73
2022/01/15 03:28:09;;;;;;;6.75;2.05;;;;;;;;;;7383595;19;20079;-73
2022/01/15 03:30:34;;;;;;;5.03;2.50;;;;;;;;;;7383116;19;20123;-73
2022/01/15 03:32:59;;;;;;;6.40;2.58;;;;;;;;;;7385352;19;20868;-73
2022/01/15 03:35:25;;;;;;;6.85;2.58;;;;;;;;;;7386198;19;20005;-73
2022/01/15 03:37:50;;;;;;;5.05;2.63;;;;;;;;;;7383619;19;20130;-73
2022/01/15 03:40:16;;;;;;;5.53;2.33;;;;;;;;;;7382222;19;20333;-73
2022/01/15 03:42:42;;;;;;;4.72;2.40;;;;;;;;;;7384219;19;20017;-73
2022/01/15 03:45:08;;;;;;;6.35;2.78;;;;;;;;;;7384791;19;20018;-73
2022/01/15 03:47:33;;;;;;;6.30;2.70;;;;;;;;;;7383180;19;20018;-73
2022/01/15 03:49:58;;;;;;;6.82;2.65;;;;;;;;;;7383721;19;20351;-73
2022/01/15 03:52:24;;;;;;;5.32;2.15;;;;;;;;;;7383224;19;20014;-73
2022/01/15 03:54:49;;;;;;;6.60;2.85;;;;;;;;;;7386159;19;20044;-73
2022/01/15 03:57:15;;;;;;;5.40;2.42;;;;;;;;;;7382622;19;20114;-73
2022/01/15 03:59:40;;;;;;;5.82;2.50;;;;;;;;;;7381937;19;20041;-73
2022/01/15 04:02:06;;;;;;;5.05;2.35;;;;;;;;;;7382867;19;20006;-73
2022/01/15 04:04:32;;;;;;;7.07;2.90;;;;;;;;;;7383220;19;20098;-73
2022/01/15 04:06:57;;;;;;;4.75;2.33;;;;;;;;;;7383719;19;20322;-73
2022/01/15 04:09:22;;;;;;;6.72;2.70;;;;;;;;;;7381078;19;20410;-73
2022/01/15 04:11:47;;;;;;;6.50;2.97;;;;;;;;;;7384182;19;20099;-73
2022/01/15 04:14:13;;;;;;;4.03;2.03;;;;;;;;;;7383696;19;20011;-73
2022/01/15 04:16:38;;;;;;;8.65;2.35;;;;;;;;;;7382783;19;20025;-73
2022/01/15 04:19:08;;;;;;;7.20;2.60;;;;;;;;;;7381536;19;20524;-73
2022/01/15 04:21:35;;;;;;;5.32;2.58;;;;;;;;;;7385286;19;20787;-74
2022/01/15 04:24:01;;;;;;;6.60;2.60;;;;;;;;;;7392712;19;20051;-73
2022/01/15 04:26:27;;;;;;;7.72;2.85;;;;;;;;;;7391686;19;20018;-73
2022/01/15 04:28:54;;;;;;;5.43;2.38;;;;;;;;;;7389984;19;20014;-74
2022/01/15 04:31:19;;;;;;;5.28;2.25;;;;;;;;;;7389106;19;20003;-73
2022/01/15 04:33:45;;;;;;;6.10;2.30;;;;;;;;;;7390011;19;20316;-73
2022/01/15 04:36:11;;;;;;;5.70;2.53;;;;;;;;;;7390083;19;20042;-74
2022/01/15 04:38:38;;;;;;;5.93;2.72;;;;;;;;;;7387530;19;20484;-73
2022/01/15 04:41:04;;;;;;;7.07;2.63;;;;;;;;;;7392318;19;20013;-73
2022/01/15 04:43:30;;;;;;;6.28;2.83;;;;;;;;;;7389929;19;20022;-73
2022/01/15 04:45:55;;;;;;;5.32;2.80;;;;;;;;;;7392243;19;20011;-73
2022/01/15 04:48:20;;;;;;;6.20;2.88;;;;;;;;;;7388624;19;20007;-73
2022/01/15 04:50:46;;;;;;;5.28;2.33;;;;;;;;;;7387794;19;20472;-73
2022/01/15 04:53:11;;;;;;;4.47;2.20;;;;;;;;;;7387565;19;20034;-73
2022/01/15 04:55:37;;;;;;;6.45;2.70;;;;;;;;;;7391173;19;20456;-73
2022/01/15 04:58:05;;;;;;;5.00;2.45;;;;;;;;;;7389230;19;20353;-73
2022/01/15 05:00:31;;;;;;;5.53;2.53;;;;;;;;;;7387461;19;20050;-74
2022/01/15 05:02:57;;;;;;;7.03;3.08;;;;;;;;;;7389887;19;20334;-73
2022/01/15 05:05:23;;;;;;;6.03;2.78;;;;;;;;;;7389156;19;20006;-73
2022/01/15 05:07:48;;;;;;;6.20;2.10;;;;;;;;;;7388113;19;20474;-73
2022/01/15 05:10:16;;;;;;;7.55;2.70;;;;;;;;;;7386526;19;20010;-73
2022/01/15 05:12:47;;;;;;;4.00;2.35;;;;;;;;;;7390254;19;20012;-73
2022/01/15 05:15:14;;;;;;;5.80;2.50;;;;;;;;;;7388801;19;20067;-74
2022/01/15 05:17:41;;;;;;;6.90;2.80;;;;;;;;;;7388464;19;20001;-74
2022/01/15 05:20:08;;;;;;;5.20;2.40;;;;;;;;;;7386114;19;20019;-74
2022/01/15 05:22:34;;;;;;;7.47;2.55;;;;;;;;;;7388988;19;20014;-73
2022/01/15 05:25:04;;;;;;;6.88;2.50;;;;;;;;;;7387662;19;20006;-74
2022/01/15 05:27:36;;;;;;;5.95;2.50;;;;;;;;;;7386516;19;20425;-73
2022/01/15 05:30:03;;;;;;;5.32;2.58;;;;;;;;;;7385043;19;20014;-73
2022/01/15 05:32:29;;;;;;;3.47;2.25;;;;;;;;;;7378717;19;20102;-73
2022/01/15 05:34:54;;;;;;;5.28;2.50;;;;;;;;;;7385525;19;20031;-73
2022/01/15 05:37:19;;;;;;;4.38;2.20;;;;;;;;;;7385622;19;20464;-73
2022/01/15 05:39:45;;;;;;;4.20;1.90;;;;;;;;;;7383438;19;20030;-73
2022/01/15 05:42:10;;;;;;;6.93;2.45;;;;;;;;;;7387835;19;19998;-74
2022/01/15 05:44:36;;;;;;;5.40;2.30;;;;;;;;;;7385603;19;20021;-73
2022/01/15 05:47:01;;;;;;;6.75;3.05;;;;;;;;;;7386540;19;20066;-73
2022/01/15 05:49:28;;;;;;;5.85;2.67;;;;;;;;;;7383406;19;20026;-73
2022/01/15 05:51:53;;;;;;;6.20;2.67;;;;;;;;;;7385504;19;20011;-73
2022/01/15 05:54:19;;;;;;;8.20;2.38;;;;;;;;;;7384330;19;20460;-73
2022/01/15 05:56:44;;;;;;;6.63;2.67;;;;;;;;;;7387494;19;20003;-73
2022/01/15 05:59:09;;;;;;;6.75;3.05;;;;;;;;;;7384669;19;20019;-74
2022/01/15 06:01:36;;;;;;;8.32;3.25;;;;;;;;;;7384959;19;20022;-74
2022/01/15 06:04:02;;;;;;;7.57;2.63;;;;;;;;;;7382958;19;20006;-74
2022/01/15 06:06:28;;;;;;;11.18;4.68;;;;;;;;;;7385464;19;20022;-73
2022/01/15 06:08:53;;;;;;;8.00;2.60;;;;;;;;;;7382989;19;20305;-74
2022/01/15 06:11:18;;;;;;;10.52;2.75;;;;;;;;;;7384347;19;20015;-73
2022/01/15 06:13:45;;;;;;;5.22;2.47;;;;;;;;;;7385760;19;20022;-73
2022/01/15 06:16:10;;;;;;;7.28;3.10;;;;;;;;;;7387535;19;20015;-74
2022/01/15 06:18:35;;;;;;;5.03;2.28;;;;;;;;;;7384071;19;20003;-74
2022/01/15 06:21:01;;;;;;;7.40;3.58;;;;;;;;;;7386794;19;20006;-74
2022/01/15 06:23:26;;;;;;;7.22;2.35;;;;;;;;;;7385875;19;20031;-74
2022/01/15 06:25:51;;;;;;;5.15;2.75;;;;;;;;;;7385544;19;20082;-74
2022/01/15 06:28:17;;;;;;;5.13;2.45;;;;;;;;;;7383872;19;20038;-74
2022/01/15 06:30:42;;;;;;;5.53;2.35;;;;;;;;;;7385268;19;20357;-74
2022/01/15 06:33:07;;;;;;;6.57;2.50;;;;;;;;;;7384733;19;20345;-74
2022/01/15 06:35:32;;;;;;;6.18;2.67;;;;;;;;;;7386052;19;20024;-74
2022/01/15 06:37:58;;;;;;;6.15;2.88;;;;;;;;;;7387176;19;20002;-73
2022/01/15 06:40:23;;;;;;;5.82;2.47;;;;;;;;;;7381173;19;20021;-74
2022/01/15 06:42:48;;;;;;;5.47;2.83;;;;;;;;;;7386898;19;20017;-73
2022/01/15 06:45:14;;;;;;;9.70;2.45;;;;;;;;;;7382948;19;20006;-74
2022/01/15 06:47:39;;;;;;;4.90;2.00;;;;;;;;;;7386102;19;20025;-74
2022/01/15 06:50:06;;;;;;;6.35;3.10;;;;;;;;;;7384063;19;20003;-74
2022/01/15 06:52:33;;;;;;;7.25;2.95;;;;;;;;;;7386304;19;20026;-74
2022/01/15 06:54:59;;;;;;;5.78;2.45;;;;;;;;;;7384761;19;20448;-74
2022/01/15 06:57:24;;;;;;;3.90;1.95;;;;;;;;;;7385965;19;20038;-74
2022/01/15 06:59:49;;;;;;;4.25;2.28;;;;;;;;;;7383923;19;20127;-74
2022/01/15 07:02:14;;;;;;;3.83;2.40;;;;;;;;;;7384699;19;20015;-74
2022/01/15 07:04:40;;;;;;;5.60;2.72;;;;;;;;;;7385772;19;20018;-74
2022/01/15 07:07:05;;;;;;;4.43;2.70;;;;;;;;;;7384008;19;20537;-74
2022/01/15 07:09:30;;;;;;;8.35;4.32;;;;;;;;;;7382398;19;20018;-74
2022/01/15 07:11:56;;;;;;;7.75;3.63;;;;;;;;;;7384453;19;20006;-74
2022/01/15 07:14:22;;;;;;;5.32;2.80;;;;;;;;;;7384241;19;20463;-74
2022/01/15 07:16:47;;;;;;;7.65;3.15;;;;;;;;;;7385268;19;20471;-74
2022/01/15 07:19:12;;;;;;;7.10;2.75;;;;;;;;;;7382656;19;20002;-74
2022/01/15 07:21:38;;;;;;;8.65;4.03;;;;;;;;;;7384074;19;20021;-74
2022/01/15 07:24:04;;;;;;;10.07;4.40;;;;;;;;;;7384806;19;20078;-74
2022/01/15 07:26:29;;;;;;;7.28;3.63;;;;;;;;;;7383747;19;20025;-74
2022/01/15 07:28:55;;;;;;;13.60;5.68;;;;;;;;;;7384435;19;20002;-74
2022/01/15 07:31:20;;;;;;;6.30;3.55;;;;;;;;;;7381486;19;20379;-74
2022/01/15 07:33:45;;;;;;;7.63;3.47;;;;;;;;;;7385832;19;20006;-74
2022/01/15 07:36:12;;;;;;;6.63;3.65;;;;;;;;;;7382953;19;20122;-74
2022/01/15 07:38:37;;;;;;;7.30;3.47;;;;;;;;;;7383198;19;20371;-74
2022/01/15 07:41:03;;;;;;;9.02;4.40;;;;;;;;;;7383482;19;20021;-74
2022/01/15 07:43:29;;;;;;;8.02;3.78;;;;;;;;;;7383718;19;20007;-74
2022/01/15 07:45:54;;;;;;;9.25;4.22;;;;;;;;;;7382610;19;20018;-74
2022/01/15 07:48:21;;;;;;;11.18;4.70;;;;;;;;;;7380923;19;20010;-74
2022/01/15 07:50:47;;;;;;;8.45;4.13;;;;;;;;;;7380467;19;20014;-74
2022/01/15 07:53:12;;;;;;;15.38;6.82;;;;;;;;;;7382510;19;20013;-74
2022/01/15 07:55:38;;;;;;;14.95;5.68;;;;;;;;;;7383906;19;20078;-74
2022/01/15 07:58:04;;;;;;;14.32;5.25;;;;;;;;;;7391804;19;20003;-74
2022/01/15 08:00:29;;;;;;;10.00;4.32;;;;;;;;;;7386226;19;20031;-74
2022/01/15 08:02:54;;;;;;;9.85;4.63;;;;;;;;;;7391168;19;20424;-74
2022/01/15 08:05:20;;;;;;;9.32;4.15;;;;;;;;;;7389469;19;20066;-74
2022/01/15 08:07:45;;;;;;;11.48;4.32;;;;;;;;;;7389625;19;20037;-74
2022/01/15 08:10:10;;;;;;;14.05;7.07;;;;;;;;;;7386113;19;20007;-74
2022/01/15 08:12:48;;;;;;;10.63;4.65;;;;;;;;;;7391231;19;20066;-74
2022/01/15 08:15:15;;;;;;;7.72;3.60;;;;;;;;;;7389625;19;20010;-74
2022/01/15 08:17:40;;;;;;;12.30;3.78;;;;;;;;;;7390279;19;20002;-74
2022/01/15 08:20:07;;;;;;;11.73;4.78;;;;;;;;;;7386820;19;20017;-74
2022/01/15 08:22:32;;;;;;;11.13;4.85;;;;;;;;;;7389526;19;20014;-74
2022/01/15 08:24:57;;;;;;;6.85;3.75;;;;;;;;;;7389615;19;20018;-74
2022/01/15 08:27:22;;;;;;;12.95;4.93;;;;;;;;;;7391505;19;19998;-74
2022/01/15 08:29:48;;;;;;;15.40;5.07;;;;;;;;;;7388455;19;19991;-74
2022/01/15 08:32:13;;;;;;;8.98;4.35;;;;;;;;;;7390481;19;20019;-74
2022/01/15 08:34:38;;;;;;;11.00;5.05;;;;;;;;;;7391146;19;20003;-74
2022/01/15 08:37:04;;;;;;;13.25;4.85;;;;;;;;;;7390069;19;20013;-74
2022/01/15 08:39:30;;;;;;;12.50;5.20;;;;;;;;;;7388181;19;20010;-74
2022/01/15 08:41:55;;;;;;;11.70;4.85;;;;;;;;;;7389530;19;20034;-74
2022/01/15 08:44:23;;;;;;;12.60;3.92;;;;;;;;;;7391790;19;19994;-74
2022/01/15 08:46:50;;;;;;;9.75;4.47;;;;;;;;;;7388590;19;20025;-74
2022/01/15 08:49:16;;;;;;;15.57;5.95;;;;;;;;;;7388854;19;20465;-74
2022/01/15 08:51:41;;;;;;;7.38;3.33;;;;;;;;;;7388815;19;20027;-74
2022/01/15 08:54:06;;;;;;;8.20;3.00;;;;;;;;;;7391933;19;20484;-74
2022/01/15 08:56:32;;;;;;;11.90;3.75;;;;;;;;;;7389109;19;20390;-74
2022/01/15 08:58:57;;;;;;;7.70;3.75;;;;;;;;;;7387338;19;20010;-73
2022/01/15 09:01:22;;;;;;;8.20;3.20;;;;;;;;;;7387722;19;20017;-73
2022/01/15 09:03:47;;;;;;;7.97;2.95;;;;;;;;;;7389809;19;20165;-74
2022/01/15 09:06:13;;;;;;;8.02;3.30;;;;;;;;;;7387919;19;20485;-74
2022/01/15 09:08:39;;;;;;;8.25;3.25;;;;;;;;;;7387504;19;20026;-74
2022/01/15 09:11:05;;;;;;;7.00;3.25;;;;;;;;;;7385138;19;20312;-73
2022/01/15 09:13:31;;;;;;;17.73;6.07;;;;;;;;;;7388889;19;20002;-74
2022/01/15 09:15:57;;;;;;;34.80;5.20;;;;;;;;;;7387838;19;20371;-73
2022/01/15 09:18:22;;;;;;;11.55;4.90;;;;;;;;;;7386308;19;20448;-74
2022/01/15 09:20:48;;;;;;;10.77;4.07;;;;;;;;;;7388808;19;20098;-73
2022/01/15 09:23:14;;;;;;;12.80;5.22;;;;;;;;;;7389711;19;20358;-73
2022/01/15 09:25:39;;;;;;;15.20;5.28;;;;;;;;;;7388687;19;20063;-74
2022/01/15 09:30:49;;;;;;;7.07;3.58;;;;;;;;;;7387412;19;20021;-73
2022/01/15 09:33:15;;;;;;;7.65;3.85;;;;;;;;;;7387274;19;20011;-73
2022/01/15 09:35:40;;;;;;;7.85;3.83;;;;;;;;;;7386521;19;20049;-73
2022/01/15 09:38:06;;;;;;;9.98;4.15;;;;;;;;;;7386873;19;20444;-74
2022/01/15 09:40:32;;;;;;;7.57;3.50;;;;;;;;;;7386045;19;20003;-73
2022/01/15 09:42:58;;;;;;;11.15;4.40;;;;;;;;;;7386768;19;20006;-73
2022/01/15 09:45:24;;;;;;;14.20;4.95;;;;;;;;;;7388287;19;19998;-73
2022/01/15 09:48:04;;;;;;;11.52;5.05;;;;;;;;;;7385455;19;20013;-73
2022/01/15 09:50:31;;;;;;;10.70;4.75;;;;;;;;;;7384688;19;20194;-74
2022/01/15 09:52:57;;;;;;;11.18;4.13;;;;;;;;;;7385160;19;20034;-74
2022/01/15 09:55:23;;;;;;;13.43;4.93;;;;;;;;;;7388865;19;20077;-74
2022/01/15 09:57:50;;;;;;;11.93;5.13;;;;;;;;;;7386761;19;20050;-74
2022/01/15 10:00:18;;;;;;;11.63;5.68;;;;;;;;;;7384918;19;20464;-73
2022/01/15 10:02:47;;;;;;;11.77;4.70;;;;;;;;;;7385004;19;20426;-74
2022/01/15 10:05:14;;;;;;;11.40;4.93;;;;;;;;;;7388376;19;20023;-74
2022/01/15 10:08:00;;;;;;;17.23;5.93;;;;;;;;;;7383445;19;20089;-74
2022/01/15 10:10:29;;;;;;;16.40;5.55;;;;;;;;;;7383481;19;20449;-74
2022/01/15 10:12:55;;;;;;;16.60;7.38;;;;;;;;;;7385585;19;20066;-74
2022/01/15 10:15:21;;;;;;;16.90;6.38;;;;;;;;;;7387480;19;20028;-73
2022/01/15 10:17:46;;;;;;;18.17;6.35;;;;;;;;;;7385853;19;20006;-74
2022/01/15 10:20:13;;;;;;;15.68;5.35;;;;;;;;;;7384882;19;20471;-74
2022/01/15 10:22:43;;;;;;;13.70;5.72;;;;;;;;;;7386650;19;20047;-74
2022/01/15 10:25:14;;;;;;;20.38;6.18;;;;;;;;;;7388946;19;19999;-71
2022/01/15 10:27:56;;;;;;;17.45;6.70;;;;;;;;;;7385531;19;20021;-73
2022/01/15 10:30:25;;;;;;;12.75;6.25;;;;;;;;;;7384564;19;20331;-73
2022/01/15 10:32:57;;;;;;;16.00;5.45;;;;;;;;;;7386077;19;20038;-73
2022/01/15 10:35:24;;;;;;;16.55;5.72;;;;;;;;;;7387176;19;20357;-73
2022/01/15 10:37:56;;;;;;;18.85;6.00;;;;;;;;;;7384186;19;20334;-74
2022/01/15 10:40:25;;;;;;;15.90;6.10;;;;;;;;;;7385121;19;20014;-73
2022/01/15 10:42:59;;;;;;;11.93;5.50;;;;;;;;;;7385526;19;20014;-74
2022/01/15 10:45:29;;;;;;;13.95;6.07;;;;;;;;;;7386441;19;20042;-74
2022/01/15 10:47:57;;;;;;;13.05;6.13;;;;;;;;;;7385499;19;20441;-71
2022/01/15 10:50:24;;;;;;;16.25;6.53;;;;;;;;;;7385283;19;19995;-74
2022/01/15 10:52:50;;;;;;;19.08;7.13;;;;;;;;;;7386093;19;20018;-74
2022/01/15 10:55:17;;;;;;;13.95;6.30;;;;;;;;;;7387759;19;20379;-74
2022/01/15 10:57:46;;;;;;;16.35;6.97;;;;;;;;;;7383413;19;20011;-71
2022/01/15 11:00:13;;;;;;;17.05;6.65;;;;;;;;;;7384246;19;20356;-71
2022/01/15 11:02:59;;;;;;;12.10;5.20;;;;;;;;;;7383869;19;20014;-74
2022/01/15 11:05:31;;;;;;;12.48;5.65;;;;;;;;;;7383960;19;20089;-73
2022/01/15 11:08:05;;;;;;;12.90;5.88;;;;;;;;;;7385681;19;20023;-73
2022/01/15 11:10:59;;;;;;;10.95;4.72;;;;;;;;;;7383456;19;20441;-73
2022/01/15 11:13:35;;;;;;;15.43;7.53;;;;;;;;;;7384119;19;20045;-73
2022/01/15 11:16:04;;;;;;;14.68;6.32;;;;;;;;;;7385965;19;20504;-73
2022/01/15 11:18:35;;;;;;;12.75;6.28;;;;;;;;;;7383939;19;20021;-73
2022/01/15 11:21:03;;;;;;;10.45;5.60;;;;;;;;;;7386589;19;20031;-73
2022/01/15 11:23:30;;;;;;;12.63;6.28;;;;;;;;;;7384407;19;20082;-73
2022/01/15 11:25:59;;;;;;;14.00;5.90;;;;;;;;;;7385424;19;20521;-73
2022/01/15 11:28:27;;;;;;;13.50;5.45;;;;;;;;;;7381904;19;20050;-73
2022/01/15 11:30:55;;;;;;;12.00;5.43;;;;;;;;;;7382815;19;20064;-73
2022/01/15 11:33:23;;;;;;;11.45;6.03;;;;;;;;;;7381703;19;20037;-73
2022/01/15 11:35:48;;;;;;;16.52;5.70;;;;;;;;;;7384044;19;20074;-73
2022/01/15 11:38:38;;;;;;;11.82;5.45;;;;;;;;;;7382891;19;20175;-73
2022/01/15 11:41:04;;;;;;;12.20;6.22;;;;;;;;;;7385875;19;20013;-73
2022/01/15 11:43:31;;;;;;;18.58;7.57;;;;;;;;;;7382866;19;20366;-73
2022/01/15 11:45:58;;;;;;;15.20;6.72;;;;;;;;;;7385297;19;20374;-73
2022/01/15 11:48:35;;;;;;;13.00;6.35;;;;;;;;;;7380595;19;20031;-73
2022/01/15 11:51:17;;;;;;;11.75;6.30;;;;;;;;;;7383647;19;20846;-73
2022/01/15 11:54:00;;;;;;;10.63;5.40;;;;;;;;;;7383812;19;20374;-73
2022/01/15 11:56:37;;;;;;;13.20;6.50;;;;;;;;;;7384245;19;20168;-73
2022/01/15 11:59:27;;;;;;;11.52;5.40;;;;;;;;;;7382399;19;20340;-71
2022/01/15 12:01:55;;;;;;;13.73;5.95;;;;;;;;;;7384284;19;20106;-71
2022/01/15 12:04:38;;;;;;;13.05;6.03;;;;;;;;;;7384745;19;20046;-71
2022/01/15 12:07:04;;;;;;;15.18;6.53;;;;;;;;;;7384866;19;20006;-73
2022/01/15 12:09:37;;;;;;;11.85;6.32;;;;;;;;;;7383140;19;20074;-73
2022/01/15 12:12:31;;;;;;;14.35;7.68;;;;;;;;;;7383098;19;20007;-73
2022/01/15 12:14:58;;;;;;;13.35;6.40;;;;;;;;;;7383144;19;20018;-73
2022/01/15 12:17:30;;;;;;;16.60;7.70;;;;;;;;;;7382965;19;20801;-73
2022/01/15 12:19:57;;;;;;;24.55;10.90;;;;;;;;;;7382163;19;20011;-73
2022/01/15 12:22:43;;;;;;;16.45;7.10;;;;;;;;;;7382621;19;20003;-73
2022/01/15 12:25:12;;;;;;;;;;;;;;;;;;7385690;19;20008;-73
2022/01/15 12:27:39;;;;;;;13.07;6.22;;;;;;;;;;7383250;19;20348;-73
2022/01/15 12:30:16;;;;;;;14.30;7.10;;;;;;;;;;7382186;19;20005;-73
2022/01/15 12:32:49;;;;;;;15.20;7.22;;;;;;;;;;7380844;19;20003;-73
2022/01/15 12:35:26;;;;;;;16.90;7.97;;;;;;;;;;7384965;19;20162;-72
2022/01/15 12:37:56;;;;;;;16.55;7.85;;;;;;;;;;7382572;19;20042;-73
2022/01/15 12:40:27;;;;;;;17.33;7.38;;;;;;;;;;7381151;19;20013;-73
2022/01/15 12:42:58;;;;;;;11.75;6.35;;;;;;;;;;7382088;19;20468;-73
2022/01/15 12:45:25;;;;;;;12.68;6.40;;;;;;;;;;7390078;19;20018;-73
2022/01/15 12:47:50;;;;;;;11.02;6.10;;;;;;;;;;7388563;19;20053;-73
2022/01/15 12:50:15;;;;;;;11.80;6.75;;;;;;;;;;7387957;19;20010;-73
2022/01/15 12:52:41;;;;;;;12.07;6.00;;;;;;;;;;7389583;19;19998;-73
2022/01/15 12:55:07;;;;;;;11.85;6.07;;;;;;;;;;7391785;19;20333;-73
2022/01/15 12:57:44;;;;;;;11.18;6.28;;;;;;;;;;7389127;19;20066;-70
2022/01/15 13:00:14;;;;;;;13.68;6.03;;;;;;;;;;7388458;19;20029;-72
2022/01/15 13:02:40;;;;;;;13.38;5.97;;;;;;;;;;7389450;19;20137;-73
2022/01/15 13:05:05;;;;;;;12.93;6.18;;;;;;;;;;7389299;19;20320;-73
2022/01/15 13:08:11;;;;;;;18.42;8.68;;;;;;;;;;7390398;19;20010;-73
2022/01/15 13:10:54;;;;;;;11.52;5.72;;;;;;;;;;7383388;19;20039;-73
2022/01/15 13:13:30;;;;;;;11.13;5.43;;;;;;;;;;7384656;19;20007;-73
2022/01/15 13:16:12;;;;;;;9.13;4.45;;;;;;;;;;7389134;19;20384;-73
2022/01/15 13:18:43;;;;;;;9.50;4.53;;;;;;;;;;7384967;19;20052;-73
2022/01/15 13:21:13;;;;;;;8.05;4.32;;;;;;;;;;7389533;19;20424;-73
2022/01/15 13:23:51;;;;;;;9.65;4.30;;;;;;;;;;7390342;19;20113;-73
2022/01/15 13:26:21;;;;;;;11.27;4.97;;;;;;;;;;7389752;19;20013;-73
2022/01/15 13:28:49;;;;;;;9.40;4.93;;;;;;;;;;7386889;19;20078;-73
2022/01/15 13:31:14;;;;;;;13.80;5.72;;;;;;;;;;7387028;19;20010;-73
2022/01/15 13:33:45;;;;;;;13.40;5.03;;;;;;;;;;7385814;19;20379;-73
2022/01/15 13:36:13;;;;;;;13.48;5.43;;;;;;;;;;7390690;19;20002;-73
2022/01/15 13:38:42;;;;;;;12.13;5.82;;;;;;;;;;7386996;19;20014;-73
2022/01/15 13:41:22;;;;;;;11.77;5.07;;;;;;;;;;7390315;19;19999;-73
2022/01/15 13:43:54;;;;;;;9.02;5.25;;;;;;;;;;7388120;19;20137;-73
2022/01/15 13:46:29;;;;;;;13.73;5.78;;;;;;;;;;7388911;19;20019;-73
2022/01/15 13:49:00;;;;;;;14.45;6.45;;;;;;;;;;7386645;19;20015;-73
2022/01/15 13:54:13;;;;;;;11.52;5.13;;;;;;;;;;7388035;19;20029;-73
2022/01/15 13:56:50;;;;;;;13.07;4.68;;;;;;;;;;7388655;19;20430;-73
2022/01/15 13:59:18;;;;;;;10.20;5.35;;;;;;;;;;7385135;19;20002;-73
2022/01/15 14:01:56;;;;;;;17.40;5.13;;;;;;;;;;7387026;19;20018;-73
2022/01/15 14:04:27;;;;;;;8.80;4.40;;;;;;;;;;7386984;19;20724;-73
2022/01/15 14:06:54;;;;;;;12.50;5.20;;;;;;;;;;7388613;19;20010;-73
2022/01/15 14:09:19;;;;;;;9.50;5.00;;;;;;;;;;7385101;19;20018;-72
2022/01/15 14:12:04;;;;;;;13.80;4.88;;;;;;;;;;7385758;19;20010;-72
2022/01/15 14:14:31;;;;;;;7.75;4.25;;;;;;;;;;7386216;19;20010;-73
2022/01/15 14:17:02;;;;;;;12.60;4.85;;;;;;;;;;7385115;19;20465;-72
2022/01/15 14:22:13;;;;;;;11.52;4.68;;;;;;;;;;7388172;19;20476;-72
2022/01/15 14:24:39;;;;;;;17.70;6.00;;;;;;;;;;7386379;19;20147;-72
2022/01/15 14:27:04;;;;;;;16.75;8.07;;;;;;;;;;7385954;19;20050;-72
2022/01/15 14:29:30;;;;;;;10.38;5.88;;;;;;;;;;7382242;19;20017;-72
2022/01/15 14:31:57;;;;;;;12.60;6.60;;;;;;;;;;7386511;19;20002;-72
2022/01/15 14:34:23;;;;;;;10.40;5.05;;;;;;;;;;7383475;19;20018;-72
2022/01/15 14:36:49;;;;;;;12.13;4.78;;;;;;;;;;7385785;19;20410;-72
2022/01/15 14:39:16;;;;;;;7.95;4.43;;;;;;;;;;7383380;19;20014;-72
2022/01/15 14:41:43;;;;;;;11.73;5.38;;;;;;;;;;7386571;19;20464;-72
2022/01/15 14:44:08;;;;;;;24.00;5.68;;;;;;;;;;7383177;19;20077;-72
2022/01/15 14:46:33;;;;;;;9.55;4.78;;;;;;;;;;7385388;19;20010;-73
2022/01/15 14:48:59;;;;;;;8.13;4.20;;;;;;;;;;7384420;19;20361;-72
2022/01/15 14:51:25;;;;;;;8.88;4.30;;;;;;;;;;7383569;19;20670;-72
2022/01/15 14:53:50;;;;;;;10.57;4.57;;;;;;;;;;7385918;19;20443;-72
2022/01/15 14:56:16;;;;;;;9.43;4.53;;;;;;;;;;7383698;19;20021;-72
2022/01/15 14:58:41;;;;;;;10.50;4.45;;;;;;;;;;7382371;19;20494;-72
2022/01/15 15:01:08;;;;;;;15.13;3.95;;;;;;;;;;7384811;19;20329;-72
2022/01/15 15:03:33;;;;;;;14.38;4.45;;;;;;;;;;7385408;19;20463;-72
2022/01/15 15:05:59;;;;;;;9.90;4.63;;;;;;;;;;7382297;19;20146;-72
2022/01/15 15:08:24;;;;;;;12.48;5.40;;;;;;;;;;7384354;19;20054;-72